createdAt,value
2022-10-12T00:02:00.623Z,48.50
2022-10-12T00:04:32.474Z,49.00
2022-10-12T00:07:04.691Z,46.75
2022-10-12T00:09:38.653Z,46.50
2022-10-12T00:12:11.381Z,44.50
2022-10-12T00:14:43.343Z,50.75
2022-10-12T00:17:16.113Z,50.00
2022-10-12T00:19:47.786Z,47.00
2022-10-12T00:22:20.192Z,46.50
2022-10-12T00:24:53.499Z,43.75
2022-10-12T00:27:25.666Z,43.00
2022-10-12T00:29:57.322Z,44.25
2022-10-12T00:32:29.960Z,44.50
2022-10-12T00:35:02.089Z,45.25
2022-10-12T00:37:34.215Z,32.25
2022-10-12T00:40:09.878Z,38.00
2022-10-12T00:42:42.000Z,39.00
2022-10-12T00:45:14.098Z,31.00
2022-10-12T00:47:52.363Z,37.80
2022-10-12T00:50:29.137Z,35.00
2022-10-12T00:53:05.310Z,40.00
2022-10-12T00:55:44.103Z,40.50
2022-10-12T00:58:16.907Z,29.20
2022-10-12T01:00:48.622Z,41.80
2022-10-12T01:03:24.679Z,38.00
2022-10-12T01:05:56.785Z,39.60
2022-10-12T01:08:29.312Z,37.00
2022-10-12T01:11:02.970Z,31.60
2022-10-12T01:13:36.170Z,41.50
2022-10-12T01:16:17.102Z,38.40
2022-10-12T01:18:55.367Z,42.00
2022-10-12T01:21:27.422Z,41.00
2022-10-12T01:24:37.212Z,40.00
2022-10-12T01:27:31.397Z,40.20
2022-10-12T01:30:23.389Z,42.50
2022-10-12T01:33:20.956Z,44.50
2022-10-12T01:36:01.767Z,43.75
2022-10-12T01:38:46.639Z,41.50
2022-10-12T01:41:25.229Z,45.75
2022-10-12T01:43:57.421Z,42.50
2022-10-12T01:46:47.966Z,44.25
2022-10-12T01:49:24.970Z,43.25
2022-10-12T01:52:25.555Z,41.00
2022-10-12T01:55:26.322Z,43.50
2022-10-12T01:58:15.416Z,43.25
2022-10-12T02:00:57.171Z,38.75
2022-10-12T02:03:38.762Z,44.25
2022-10-12T02:06:15.792Z,46.00
2022-10-12T02:08:54.779Z,50.00
2022-10-12T02:11:29.144Z,46.25
2022-10-12T02:14:06.671Z,48.75
2022-10-12T02:16:44.401Z,51.00
2022-10-12T02:19:25.421Z,46.50
2022-10-12T02:21:59.372Z,44.50
2022-10-12T02:24:34.873Z,43.75
2022-10-12T02:27:09.684Z,41.75
2022-10-12T02:29:44.123Z,41.00
2022-10-12T02:32:22.990Z,42.50
2022-10-12T02:35:00.928Z,44.25
2022-10-12T02:37:39.953Z,44.50
2022-10-12T02:40:18.867Z,43.00
2022-10-12T02:43:11.521Z,45.00
2022-10-12T02:45:46.785Z,45.25
2022-10-12T02:48:23.501Z,41.25
2022-10-12T02:50:59.777Z,44.25
2022-10-12T02:53:34.245Z,45.50
2022-10-12T02:56:09.566Z,44.00
2022-10-12T02:58:42.063Z,43.50
2022-10-12T03:01:14.427Z,48.00
2022-10-12T03:03:46.322Z,46.25
2022-10-12T03:06:21.597Z,46.75
2022-10-12T03:08:53.615Z,46.00
2022-10-12T03:11:26.520Z,42.75
2022-10-12T03:13:59.228Z,39.50
2022-10-12T03:16:31.062Z,36.50
2022-10-12T03:19:02.880Z,46.00
2022-10-12T03:21:37.052Z,35.00
2022-10-12T03:24:09.090Z,40.75
2022-10-12T03:26:40.968Z,40.25
2022-10-12T03:29:13.273Z,45.00
2022-10-12T03:31:45.704Z,42.00
2022-10-12T03:34:17.765Z,45.00
2022-10-12T03:36:51.562Z,42.75
2022-10-12T03:39:23.421Z,40.00
2022-10-12T03:41:55.824Z,43.50
2022-10-12T03:44:28.450Z,43.25
2022-10-12T03:47:00.744Z,42.00
2022-10-12T03:49:32.310Z,45.00
2022-10-12T03:52:05.929Z,34.80
2022-10-12T03:54:37.501Z,43.00
2022-10-12T03:57:09.890Z,44.00
2022-10-12T03:59:41.597Z,37.00
2022-10-12T04:02:16.918Z,47.40
2022-10-12T04:04:49.347Z,46.25
2022-10-12T04:07:22.642Z,38.50
2022-10-12T04:09:54.679Z,43.20
2022-10-12T04:12:26.417Z,36.20
2022-10-12T04:14:58.683Z,37.75
2022-10-12T04:17:30.294Z,48.50
2022-10-12T04:20:02.255Z,47.75
2022-10-12T04:22:36.003Z,50.75
2022-10-12T04:25:09.028Z,53.25
2022-10-12T04:27:40.978Z,46.50
2022-10-12T04:30:14.360Z,53.00
2022-10-12T04:32:46.783Z,54.00
2022-10-12T04:35:19.153Z,51.50
2022-10-12T04:37:53.375Z,49.00
2022-10-12T04:40:25.209Z,48.00
2022-10-12T04:42:57.821Z,52.00
2022-10-12T04:45:29.562Z,56.00
2022-10-12T04:48:01.577Z,52.50
2022-10-12T04:50:33.222Z,70.50
2022-10-12T04:53:07.993Z,66.75
2022-10-12T04:55:42.581Z,55.75
2022-10-12T04:58:14.406Z,50.25
2022-10-12T05:00:46.464Z,49.50
2022-10-12T05:03:19.011Z,53.75
2022-10-12T05:05:51.031Z,49.00
2022-10-12T05:08:24.724Z,53.75
2022-10-12T05:10:59.525Z,56.00
2022-10-12T05:13:31.487Z,51.00
2022-10-12T05:16:03.394Z,47.00
2022-10-12T05:18:35.079Z,47.50
2022-10-12T05:21:06.949Z,51.75
2022-10-12T05:23:41.045Z,48.00
2022-10-12T05:26:12.996Z,49.00
2022-10-12T05:28:45.571Z,49.00
2022-10-12T05:31:17.462Z,49.50
2022-10-12T05:33:49.557Z,51.75
2022-10-12T05:36:22.018Z,48.00
2022-10-12T05:38:55.809Z,47.75
2022-10-12T05:41:27.495Z,50.50
2022-10-12T05:44:00.021Z,45.75
2022-10-12T05:46:31.670Z,45.50
2022-10-12T05:49:03.889Z,43.50
2022-10-12T05:51:36.451Z,41.50
2022-10-12T05:54:10.274Z,46.80
2022-10-12T05:56:43.459Z,46.00
2022-10-12T05:59:16.054Z,42.50
2022-10-12T06:01:48.559Z,42.75
2022-10-12T06:04:22.155Z,47.75
2022-10-12T06:06:54.231Z,46.20
2022-10-12T06:09:28.030Z,48.25
2022-10-12T06:11:59.918Z,45.00
2022-10-12T06:14:32.354Z,44.50
2022-10-12T06:17:05.001Z,48.25
2022-10-12T06:19:37.228Z,47.00
2022-10-12T06:22:09.760Z,42.20
2022-10-12T06:24:43.128Z,46.20
2022-10-12T06:27:15.670Z,45.40
2022-10-12T06:29:48.402Z,43.00
2022-10-12T06:32:20.703Z,37.80
2022-10-12T06:34:53.727Z,38.60
2022-10-12T06:37:48.602Z,33.60
2022-10-12T06:40:21.874Z,42.00
2022-10-12T06:42:58.405Z,40.00
2022-10-12T06:45:33.127Z,39.80
2022-10-12T06:48:06.309Z,41.60
2022-10-12T06:50:39.056Z,43.20
2022-10-12T06:53:12.406Z,39.80
2022-10-12T06:55:47.810Z,40.60
2022-10-12T06:58:20.765Z,41.60
2022-10-12T07:00:53.437Z,39.80
2022-10-12T07:03:26.913Z,40.00
2022-10-12T07:05:59.258Z,39.00
2022-10-12T07:08:32.502Z,66.60
2022-10-12T07:11:09.064Z,186.50
2022-10-12T07:13:42.414Z,218.50
2022-10-12T07:16:15.232Z,111.25
2022-10-12T07:18:48.099Z,189.00
2022-10-12T07:21:21.697Z,136.75
2022-10-12T07:23:54.648Z,158.75
2022-10-12T07:26:29.395Z,104.80
2022-10-12T07:29:03.645Z,146.00
2022-10-12T07:31:37.122Z,95.75
2022-10-12T07:34:10.614Z,113.00
2022-10-12T07:36:59.189Z,28.20
2022-10-12T07:39:32.433Z,79.00
2022-10-12T07:42:07.326Z,93.40
2022-10-12T07:44:40.334Z,100.80
2022-10-12T07:47:30.374Z,116.20
2022-10-12T07:50:06.565Z,67.80
2022-10-12T07:52:39.715Z,75.40
2022-10-12T07:55:13.831Z,113.40
2022-10-12T07:57:49.100Z,252.25
2022-10-12T08:00:23.693Z,145.50
2022-10-12T08:02:56.898Z,77.40
2022-10-12T08:05:31.198Z,160.25
2022-10-12T08:08:04.102Z,154.25
2022-10-12T08:10:39.451Z,51.50
2022-10-12T08:13:14.735Z,189.00
2022-10-12T08:15:53.589Z,77.20
2022-10-12T08:18:26.720Z,159.00
2022-10-12T08:21:00.101Z,70.60
2022-10-12T08:23:33.770Z,66.50
2022-10-12T08:26:07.409Z,37.80
2022-10-12T08:28:43.041Z,31.25
2022-10-12T08:31:18.301Z,32.75
2022-10-12T08:33:51.896Z,31.25
2022-10-12T08:36:25.883Z,195.75
2022-10-12T08:39:00.099Z,32.80
2022-10-12T08:41:51.970Z,31.40
2022-10-12T08:44:45.037Z,22.50
2022-10-12T08:47:22.362Z,92.00
2022-10-12T08:49:55.579Z,84.00
2022-10-12T08:52:35.600Z,19.60
2022-10-12T08:55:20.984Z,30.80
2022-10-12T08:57:54.587Z,11.20
2022-10-12T09:00:29.739Z,24.40
2022-10-12T09:03:16.413Z,35.20
2022-10-12T09:05:57.556Z,42.00
2022-10-12T09:08:39.133Z,43.60
2022-10-12T09:11:27.803Z,80.00
2022-10-12T09:14:07.299Z,45.25
2022-10-12T09:16:47.833Z,39.60
2022-10-12T09:19:24.603Z,29.20
2022-10-12T09:21:58.265Z,63.40
2022-10-12T09:24:33.822Z,24.00
2022-10-12T09:27:17.040Z,34.60
2022-10-12T09:29:51.838Z,33.75
2022-10-12T09:32:47.421Z,39.00
2022-10-12T09:35:21.584Z,30.20
2022-10-12T09:37:57.305Z,35.20
2022-10-12T09:40:32.749Z,29.00
2022-10-12T09:43:07.866Z,27.20
2022-10-12T09:45:42.285Z,26.20
2022-10-12T09:48:23.675Z,21.80
2022-10-12T09:50:59.783Z,29.75
2022-10-12T09:53:41.700Z,22.20
2022-10-12T09:56:26.711Z,29.00
2022-10-12T09:59:03.967Z,27.80
2022-10-12T10:01:38.568Z,24.40
2022-10-12T10:04:16.889Z,26.00
2022-10-12T10:06:54.397Z,26.60
2022-10-12T10:09:36.303Z,25.60
2022-10-12T10:12:26.129Z,22.40
2022-10-12T10:15:01.071Z,30.80
2022-10-12T10:17:36.126Z,25.40
2022-10-12T10:20:26.469Z,19.20
2022-10-12T10:23:00.268Z,38.60
2022-10-12T10:25:37.796Z,19.60
2022-10-12T10:28:26.380Z,18.40
2022-10-12T10:31:05.836Z,22.20
2022-10-12T10:33:39.988Z,9.40
2022-10-12T10:36:24.760Z,21.40
2022-10-12T10:39:03.658Z,25.40
2022-10-12T10:41:40.595Z,13.75
2022-10-12T10:44:28.045Z,29.40
2022-10-12T10:47:04.364Z,44.50
2022-10-12T10:49:45.702Z,23.80
2022-10-12T10:52:29.472Z,21.00
2022-10-12T10:55:24.216Z,28.60
2022-10-12T10:58:05.734Z,26.00
2022-10-12T11:00:48.660Z,23.20
2022-10-12T11:03:27.558Z,24.60
2022-10-12T11:06:11.974Z,20.00
2022-10-12T11:08:49.559Z,21.40
2022-10-12T11:11:30.695Z,49.25
2022-10-12T11:14:06.423Z,24.20
2022-10-12T11:16:45.706Z,8.00
2022-10-12T11:19:30.196Z,60.50
2022-10-12T11:22:07.913Z,27.20
2022-10-12T11:24:50.528Z,27.80
2022-10-12T11:27:31.897Z,29.80
2022-10-12T11:30:09.958Z,27.80
2022-10-12T11:32:47.269Z,67.00
2022-10-12T11:35:27.657Z,29.20
2022-10-12T11:38:05.308Z,36.00
2022-10-12T11:41:05.683Z,26.20
2022-10-12T11:43:49.153Z,27.00
2022-10-12T11:46:25.705Z,29.40
2022-10-12T11:49:05.938Z,29.60
2022-10-12T11:51:41.545Z,28.40
2022-10-12T11:54:23.926Z,31.80
2022-10-12T11:57:09.190Z,30.20
2022-10-12T11:59:48.696Z,23.00
2022-10-12T12:02:27.295Z,27.80
2022-10-12T12:05:01.553Z,25.00
2022-10-12T12:07:47.842Z,26.40
2022-10-12T12:11:01.898Z,31.20
2022-10-12T12:13:37.136Z,24.00
2022-10-12T12:16:37.085Z,63.00
2022-10-12T12:19:35.135Z,9.40
2022-10-12T12:22:27.847Z,28.20
2022-10-12T12:25:22.238Z,25.40
2022-10-12T12:27:58.166Z,28.00
2022-10-12T12:30:39.914Z,29.40
2022-10-12T12:33:32.971Z,31.60
2022-10-12T12:36:08.574Z,15.60
2022-10-12T12:38:44.113Z,28.20
2022-10-12T12:41:19.189Z,29.80
2022-10-12T12:44:03.378Z,25.60
2022-10-12T12:47:44.604Z,24.00
2022-10-12T12:50:28.052Z,34.20
2022-10-12T12:53:09.352Z,27.20
2022-10-12T12:56:06.653Z,33.20
2022-10-12T12:59:15.790Z,30.80
2022-10-12T13:02:16.856Z,37.50
2022-10-12T13:05:24.447Z,31.40
2022-10-12T13:08:16.866Z,32.50
2022-10-12T13:11:05.965Z,37.20
2022-10-12T13:14:01.605Z,38.60
2022-10-12T13:20:00.854Z,37.25
2022-10-12T13:22:38.108Z,36.80
2022-10-12T13:25:22.658Z,34.40
2022-10-12T13:27:58.129Z,40.00
2022-10-12T13:30:40.495Z,40.00
2022-10-12T13:33:27.679Z,41.75
2022-10-12T13:36:10.174Z,40.80
2022-10-12T13:38:43.597Z,39.60
2022-10-12T13:41:20.443Z,33.00
2022-10-12T13:43:58.006Z,42.20
2022-10-12T13:46:46.097Z,39.25
2022-10-12T13:49:21.891Z,41.00
2022-10-12T13:51:58.066Z,38.75
2022-10-12T13:54:37.800Z,41.75
2022-10-12T13:57:25.221Z,40.00
2022-10-12T14:00:01.676Z,42.75
2022-10-12T14:02:38.701Z,44.75
2022-10-12T14:05:22.062Z,64.75
2022-10-12T14:07:57.912Z,20.25
2022-10-12T14:10:34.460Z,43.50
2022-10-12T14:13:19.661Z,45.00
2022-10-12T14:15:56.495Z,44.75
2022-10-12T14:18:38.940Z,49.00
2022-10-12T14:21:21.215Z,41.25
2022-10-12T14:23:57.146Z,46.50
2022-10-12T14:26:33.031Z,43.50
2022-10-12T14:29:40.312Z,44.50
2022-10-12T14:32:45.605Z,45.00
2022-10-12T14:35:26.759Z,44.50
2022-10-12T14:38:01.077Z,47.50
2022-10-12T14:40:45.874Z,45.25
2022-10-12T14:43:27.019Z,49.75
2022-10-12T14:46:02.046Z,53.50
2022-10-12T14:48:40.400Z,64.50
2022-10-12T14:51:18.355Z,48.25
2022-10-12T14:54:02.556Z,45.00
2022-10-12T14:56:34.869Z,49.00
2022-10-12T14:59:08.289Z,52.50
2022-10-12T15:01:51.010Z,52.00
2022-10-12T15:04:24.958Z,52.25
2022-10-12T15:06:58.231Z,51.25
2022-10-12T15:09:34.117Z,51.25
2022-10-12T15:12:07.151Z,51.50
2022-10-12T15:14:40.415Z,47.75
2022-10-12T15:17:17.051Z,50.75
2022-10-12T15:19:51.093Z,52.75
2022-10-12T15:22:25.494Z,53.75
2022-10-12T15:24:59.325Z,49.00
2022-10-12T15:27:32.222Z,48.50
2022-10-12T15:30:05.137Z,55.50
2022-10-12T15:32:40.125Z,55.25
2022-10-12T15:35:25.454Z,57.00
2022-10-12T15:38:03.116Z,53.75
2022-10-12T15:40:38.056Z,57.50
2022-10-12T15:43:12.961Z,58.25
2022-10-12T15:45:47.800Z,37.75
2022-10-12T15:48:23.129Z,52.00
2022-10-12T15:50:56.431Z,55.50
2022-10-12T15:53:30.662Z,55.00
2022-10-12T15:56:04.109Z,53.50
2022-10-12T15:58:39.314Z,60.50
2022-10-12T16:01:14.787Z,56.75
2022-10-12T16:03:50.484Z,54.50
2022-10-12T16:06:26.586Z,54.25
2022-10-12T16:09:04.792Z,53.75
2022-10-12T16:11:38.569Z,50.75
2022-10-12T16:14:13.781Z,54.00
2022-10-12T16:16:50.330Z,57.00
2022-10-12T16:19:25.205Z,55.25
2022-10-12T16:21:59.216Z,52.25
2022-10-12T16:24:38.779Z,52.00
2022-10-12T16:27:12.419Z,57.50
2022-10-12T16:29:49.375Z,53.75
2022-10-12T16:32:24.894Z,56.25
2022-10-12T16:35:01.353Z,54.50
2022-10-12T16:37:35.135Z,57.50
2022-10-12T16:40:19.402Z,60.25
2022-10-12T16:42:56.456Z,62.50
2022-10-12T16:45:35.184Z,61.00
2022-10-12T16:48:16.151Z,61.50
2022-10-12T16:50:51.783Z,65.25
2022-10-12T16:53:25.529Z,60.25
2022-10-12T16:55:59.335Z,61.25
2022-10-12T16:58:32.145Z,65.00
2022-10-12T17:01:13.335Z,61.00
2022-10-12T17:03:48.449Z,62.00
2022-10-12T17:06:23.213Z,63.50
2022-10-12T17:08:56.495Z,61.50
2022-10-12T17:11:29.891Z,62.50
2022-10-12T17:14:03.545Z,67.00
2022-10-12T17:16:54.220Z,65.50
2022-10-12T17:19:30.611Z,68.75
2022-10-12T17:22:07.768Z,63.50
2022-10-12T17:24:43.811Z,66.75
2022-10-12T17:27:18.233Z,70.50
2022-10-12T17:29:51.133Z,68.50
2022-10-12T17:32:24.289Z,74.00
2022-10-12T17:34:57.765Z,71.20
2022-10-12T17:37:32.186Z,74.80
2022-10-12T17:40:05.588Z,72.40
2022-10-12T17:42:38.331Z,72.20
2022-10-12T17:45:12.443Z,73.60
2022-10-12T17:47:45.797Z,76.40
2022-10-12T17:50:19.280Z,76.60
2022-10-12T17:52:54.560Z,77.80
2022-10-12T17:55:43.932Z,72.60
2022-10-12T17:58:20.614Z,78.20
2022-10-12T18:00:53.835Z,77.40
2022-10-12T18:03:29.280Z,74.20
2022-10-12T18:06:07.354Z,84.00
2022-10-12T18:08:41.908Z,78.80
2022-10-12T18:11:14.785Z,78.00
2022-10-12T18:13:50.229Z,77.20
2022-10-12T18:16:25.064Z,74.40
2022-10-12T18:18:57.560Z,73.60
2022-10-12T18:21:31.373Z,77.40
2022-10-12T18:24:10.242Z,75.60
2022-10-12T18:26:46.569Z,78.20
2022-10-12T18:29:23.159Z,73.40
2022-10-12T18:31:55.672Z,78.00
2022-10-12T18:34:30.958Z,78.60
2022-10-12T18:37:05.894Z,72.40
2022-10-12T18:39:41.588Z,73.60
2022-10-12T18:42:14.629Z,73.80
2022-10-12T18:44:46.934Z,74.00
2022-10-12T18:47:23.466Z,81.60
2022-10-12T18:49:56.922Z,74.60
2022-10-12T18:52:29.034Z,79.00
2022-10-12T18:55:02.888Z,83.80
2022-10-12T18:57:39.843Z,79.40
2022-10-12T19:00:14.214Z,83.80
2022-10-12T19:02:46.194Z,71.60
2022-10-12T19:05:18.820Z,75.40
2022-10-12T19:07:50.498Z,80.00
2022-10-12T19:10:24.039Z,77.20
2022-10-12T19:12:55.877Z,80.80
2022-10-12T19:15:29.945Z,79.20
2022-10-12T19:18:02.000Z,82.00
2022-10-12T19:20:34.688Z,75.60
2022-10-12T19:23:06.317Z,82.80
2022-10-12T19:25:43.096Z,72.20
2022-10-12T19:28:15.107Z,73.60
2022-10-12T19:30:47.528Z,71.40
2022-10-12T19:33:19.537Z,78.40
2022-10-12T19:35:52.135Z,75.80
2022-10-12T19:38:24.016Z,84.60
2022-10-12T19:40:57.717Z,74.20
2022-10-12T19:43:29.708Z,72.00
2022-10-12T19:46:06.272Z,77.80
2022-10-12T19:48:39.043Z,80.80
2022-10-12T19:51:12.314Z,78.00
2022-10-12T19:53:45.173Z,75.20
2022-10-12T19:56:22.612Z,77.20
2022-10-12T19:58:56.734Z,75.40
2022-10-12T20:01:30.405Z,73.80
2022-10-12T20:04:03.044Z,77.60
2022-10-12T20:06:34.880Z,75.80
2022-10-12T20:09:07.699Z,75.20
2022-10-12T20:11:42.148Z,72.80
2022-10-12T20:14:14.653Z,73.20
2022-10-12T20:16:46.903Z,72.40
2022-10-12T20:19:19.051Z,71.60
2022-10-12T20:21:50.972Z,70.20
2022-10-12T20:24:23.075Z,73.80
2022-10-12T20:26:56.797Z,76.20
2022-10-12T20:29:28.870Z,72.00
2022-10-12T20:32:00.835Z,74.40
2022-10-12T20:34:32.574Z,71.00
2022-10-12T20:37:04.516Z,71.50
2022-10-12T20:39:36.658Z,70.25
2022-10-12T20:42:10.401Z,70.20
2022-10-12T20:44:42.290Z,72.50
2022-10-12T20:47:14.162Z,74.50
2022-10-12T20:49:45.939Z,71.75
2022-10-12T20:52:18.757Z,72.00
2022-10-12T20:54:54.086Z,72.00
2022-10-12T20:57:27.391Z,74.20
2022-10-12T20:59:59.578Z,68.60
2022-10-12T21:02:31.631Z,69.50
2022-10-12T21:05:03.642Z,82.00
2022-10-12T21:07:35.962Z,74.40
2022-10-12T21:10:09.060Z,72.80
2022-10-12T21:12:42.700Z,71.20
2022-10-12T21:15:15.517Z,71.00
2022-10-12T21:17:47.573Z,71.20
2022-10-12T21:20:19.499Z,74.00
2022-10-12T21:22:51.799Z,72.20
2022-10-12T21:25:23.674Z,69.20
2022-10-12T21:27:57.651Z,72.40
2022-10-12T21:30:29.287Z,70.20
2022-10-12T21:33:01.463Z,70.60
2022-10-12T21:35:33.221Z,66.50
2022-10-12T21:38:05.211Z,69.40
2022-10-12T21:40:37.631Z,73.25
2022-10-12T21:43:11.315Z,70.60
2022-10-12T21:45:43.188Z,72.00
2022-10-12T21:48:16.796Z,65.75
2022-10-12T21:50:48.849Z,73.20
2022-10-12T21:53:21.094Z,72.20
2022-10-12T21:55:52.825Z,71.40
2022-10-12T21:58:26.275Z,70.80
2022-10-12T22:01:07.725Z,74.40
2022-10-12T22:03:40.648Z,69.60
2022-10-12T22:06:16.895Z,70.80
2022-10-12T22:08:54.298Z,69.50
2022-10-12T22:11:27.412Z,73.20
2022-10-12T22:14:03.278Z,67.80
2022-10-12T22:16:35.536Z,74.20
2022-10-12T22:19:09.749Z,70.50
2022-10-12T22:21:41.521Z,69.20
2022-10-12T22:24:13.203Z,73.20
2022-10-12T22:26:45.232Z,70.00
2022-10-12T22:29:19.196Z,71.60
2022-10-12T22:31:51.291Z,73.00
2022-10-12T22:34:23.788Z,69.75
2022-10-12T22:36:56.532Z,71.20
2022-10-12T22:39:30.839Z,70.00
2022-10-12T22:42:02.972Z,70.40
2022-10-12T22:44:36.209Z,69.20
2022-10-12T22:47:08.917Z,73.40
2022-10-12T22:49:40.618Z,70.20
2022-10-12T22:52:12.905Z,72.80
2022-10-12T22:54:47.275Z,75.80
2022-10-12T22:57:20.174Z,73.00
2022-10-12T22:59:53.876Z,68.60
2022-10-12T23:02:25.787Z,75.60
2022-10-12T23:04:57.387Z,70.60
2022-10-12T23:07:29.332Z,72.20
2022-10-12T23:10:01.011Z,73.80
2022-10-12T23:12:33.225Z,71.80
2022-10-12T23:15:06.731Z,71.40
2022-10-12T23:17:38.667Z,74.40
2022-10-12T23:20:11.609Z,73.00
2022-10-12T23:22:43.573Z,74.40
2022-10-12T23:25:15.033Z,73.40
2022-10-12T23:27:46.668Z,73.60
2022-10-12T23:30:20.078Z,73.40
2022-10-12T23:32:52.481Z,74.40
2022-10-12T23:35:24.448Z,75.60
2022-10-12T23:37:56.671Z,75.80
2022-10-12T23:40:28.380Z,72.60
2022-10-12T23:43:00.726Z,73.00
2022-10-12T23:45:34.682Z,73.60
2022-10-12T23:48:06.586Z,71.60
2022-10-12T23:50:39.603Z,76.00
2022-10-12T23:53:12.946Z,73.80
2022-10-12T23:55:45.374Z,73.60
2022-10-12T23:58:17.344Z,74.00
